LIRQ/FLR METAR and TAF weather

Enter ICAO airport designator
Station Type Date Time Source
LIRQ METAR 2019/10/14 05:20 UTC NOAA

LIRQ 140520Z 00000KT 9999 BKN050 14/13 Q1022


Station Type Date Time Source
LIRQ Decoded METAR 2019/10/14 05:20 UTC NOAA

Firenze / Peretola, Italy (LIRQ) 43-48N 011-12E 38M
Oct 14, 2019 - 01:20 AM EDT / 2019.10.14 0520 UTC
Wind: Calm:0
Visibility: greater than 7 mile(s):0
Sky conditions: mostly cloudy
Temperature: 57 F (14 C)
Dew Point: 55 F (13 C)
Relative Humidity: 93%
Pressure (altimeter): 30.18 in. Hg (1022 hPa)
ob: LIRQ 140520Z 00000KT 9999 BKN050 14/13 Q1022
cycle: 5

Station Type Date Time Source
LIRQ TAF 2019/10/14 06:24 UTC NOAA

TAF LIRQ 140500Z 1406/1506 VRB05KT 9999 SCT030

Example: see airport list